Jay Michael — WDD2051 — position and weather

sailwx.info

Track history (hours):
 
Tides and Currents Weather Stations Pressure Air Temp Water Temp Dewpoint Dewpoint Depression Visibility Wind Speed Wind Dir Waves Ship Positions

Jay Michael

Owner: Sterling Equipment Inc., Quincy, MA. More information available from US FCC via Universal Licensing System and Coast Guard Vessel Documentation Center.

Last reported at 2014-Dec-18 19:32 UTC. Time now 2014-Dec-18 19:36 UTC.
Position N 40°38' W 074°12'.

Length 21 m.

Type: Tug. MMSI: 367110280.

Date/timePositionNaut miles runAvg speedWind from/ knotsBaromVisibWave heightAir tempDewpointWater temp
2014-Dec-18 19:32N 40°38' W 074°12'0 0.0
2014-Dec-18 18:33N 40°38' W 074°12'2 1.9
2014-Dec-18 17:33N 40°38' W 074°09'2 1.6
2014-Dec-18 16:33N 40°39' W 074°11'0 0.4
2014-Dec-18 15:34N 40°38' W 074°12'0 0.0
2014-Dec-18 14:33N 40°38' W 074°12'2 1.6
2014-Dec-18 13:31N 40°38' W 074°10'2 1.8
2014-Dec-18 12:26N 40°39' W 074°07'2 2.7
2014-Dec-18 11:33N 40°39' W 074°10'1 1.3
2014-Dec-18 10:31N 40°38' W 074°12'0 0.0
2014-Dec-18 09:33N 40°38' W 074°12'0 0.0
2014-Dec-18 08:33N 40°38' W 074°12'0 0.0
2014-Dec-18 07:33N 40°38' W 074°12'0 0.0
2014-Dec-18 06:32N 40°38' W 074°12'0 0.0
2014-Dec-18 05:23N 40°38' W 074°12'0 0.0
2014-Dec-18 02:19N 40°38' W 074°12'0 0.0
2014-Dec-18 00:22N 40°38' W 074°12'0 0.0
2014-Dec-17 23:33N 40°38' W 074°12'0 0.0
2014-Dec-17 22:33N 40°38' W 074°12'0 0.0
2014-Dec-17 21:33N 40°38' W 074°12'1 1.0
2014-Dec-17 20:34N 40°39' W 074°11'1 1.4
2014-Dec-17 19:33N 40°39' W 074°09'4 3.9
2014-Dec-17 18:33N 40°39' W 074°04'4 4.2
2014-Dec-17 17:33N 40°35' W 074°02'3 2.7
2014-Dec-17 16:28N 40°32' W 074°00'7 3.6
2014-Dec-17 14:32N 40°27' W 073°54'14 1.9
2014-Dec-17 07:11N 40°14' W 073°47'8 4.3
2014-Dec-17 05:22N 40°21' W 073°51'4 4.2
2014-Dec-17 04:25N 40°24' W 073°53'6 4.4
2014-Dec-17 03:04N 40°30' W 073°57'3 5.0
2014-Dec-17 02:31N 40°31' W 073°60'5 5.5
2014-Dec-17 01:33N 40°36' W 074°02'3 3.2
2014-Dec-17 00:34N 40°39' W 074°04'4 4.3
2014-Dec-16 23:32N 40°39' W 074°10'1 0.8
2014-Dec-16 22:33N 40°39' W 074°11'1 1.3
2014-Dec-16 21:33N 40°39' W 074°10'2 1.8
2014-Dec-16 20:33N 40°38' W 074°12'0 0.0
2014-Dec-16 19:34N 40°38' W 074°12'1 0.6
2014-Dec-16 18:33N 40°39' W 074°11'0 0.0
2014-Dec-16 17:32N 40°39' W 074°11'0 0.0
2014-Dec-16 16:34N 40°39' W 074°11'0 0.0
2014-Dec-16 15:33N 40°39' W 074°11'0 0.0
2014-Dec-16 14:33N 40°39' W 074°11'0 0.0
2014-Dec-16 13:33N 40°39' W 074°11'0 0.0
2014-Dec-16 12:33N 40°39' W 074°11'0 0.0
2014-Dec-16 11:33N 40°39' W 074°11'0 0.0
2014-Dec-16 10:30N 40°39' W 074°11'0 0.0
2014-Dec-16 09:34N 40°39' W 074°11'0 0.0
2014-Dec-16 08:34N 40°39' W 074°11'0 0.0
2014-Dec-16 07:33N 40°39' W 074°11'0 0.0
2014-Dec-16 06:32N 40°39' W 074°11'0 0.0
2014-Dec-16 05:33N 40°39' W 074°11'0 0.0
2014-Dec-16 04:31N 40°39' W 074°11'0 0.0
2014-Dec-16 03:32N 40°39' W 074°11'2 2.1
2014-Dec-16 02:33N 40°39' W 074°09'2 1.8
2014-Dec-16 01:27N 40°39' W 074°11'1 1.6
2014-Dec-16 00:31N 40°38' W 074°09'0 0.2
2014-Dec-15 23:34N 40°39' W 074°09'0 0.0
2014-Dec-15 22:33N 40°39' W 074°09'0 0.0
2014-Dec-15 21:33N 40°39' W 074°09'2 1.8
2014-Dec-15 20:28N 40°38' W 074°12'0 0.1
2014-Dec-15 19:33N 40°38' W 074°12'0 0.2
2014-Dec-15 18:31N 40°38' W 074°12'0 0.3
2014-Dec-15 17:32N 40°38' W 074°11'0 0.4
2014-Dec-15 16:33N 40°38' W 074°12'0 0.0
2014-Dec-15 15:33N 40°38' W 074°12'0 0.0
2014-Dec-15 14:32N 40°38' W 074°12'0 0.0
2014-Dec-15 13:17N 40°38' W 074°12'1 1.9
2014-Dec-15 12:33N 40°39' W 074°10'1 1.1
2014-Dec-15 11:29N 40°38' W 074°12'0 0.3
2014-Dec-15 10:33N 40°38' W 074°12'0 0.0
2014-Dec-15 09:33N 40°38' W 074°12'0 0.0
2014-Dec-15 08:33N 40°38' W 074°12'0 0.0
2014-Dec-15 07:33N 40°38' W 074°12'0 0.0
2014-Dec-15 06:33N 40°38' W 074°12'0 0.0
2014-Dec-15 05:33N 40°38' W 074°12'0 0.0
2014-Dec-15 04:33N 40°38' W 074°12'0 0.0
2014-Dec-15 03:33N 40°38' W 074°12'0 0.0
2014-Dec-15 02:33N 40°38' W 074°12'0 0.0
2014-Dec-15 01:33N 40°38' W 074°12'0 0.0
2014-Dec-15 00:33N 40°38' W 074°12'0 0.0
2014-Dec-14 23:33N 40°38' W 074°12'0 0.1
2014-Dec-14 22:33N 40°38' W 074°12'0 0.0
2014-Dec-14 21:33N 40°38' W 074°12'0 0.0
2014-Dec-14 20:33N 40°38' W 074°12'0 0.1
2014-Dec-14 19:33N 40°38' W 074°12'0 0.0
2014-Dec-14 18:33N 40°38' W 074°12'1 0.6
2014-Dec-14 17:31N 40°38' W 074°12'1 0.9
2014-Dec-14 16:33N 40°38' W 074°12'0 0.2
2014-Dec-14 15:33N 40°39' W 074°11'0 0.5
2014-Dec-14 14:33N 40°38' W 074°12'1 0.5
2014-Dec-14 13:33N 40°38' W 074°11'0 0.5
2014-Dec-14 12:33N 40°38' W 074°12'0 0.0
2014-Dec-14 11:30N 40°38' W 074°12'0 0.0
2014-Dec-14 10:32N 40°38' W 074°12'0 0.0
2014-Dec-14 09:33N 40°38' W 074°12'0 0.0
2014-Dec-14 08:31N 40°38' W 074°12'0 0.0
2014-Dec-14 07:33N 40°38' W 074°12'0 0.0
2014-Dec-14 06:33N 40°38' W 074°12'0 0.0
2014-Dec-14 05:33N 40°38' W 074°12'1 1.0
2014-Dec-14 04:32N 40°39' W 074°11'7 6.7
2014-Dec-14 03:33N 40°36' W 074°03'1 1.4
2014-Dec-14 02:33N 40°38' W 074°03'6 5.7
2014-Dec-14 01:33N 40°39' W 074°10'1 1.3
2014-Dec-14 00:33N 40°38' W 074°12'0 0.0
2014-Dec-13 23:23N 40°38' W 074°12'0 0.0
2014-Dec-13 22:28N 40°38' W 074°12'2 2.7
2014-Dec-13 21:33N 40°39' W 074°09'1 0.5
2014-Dec-13 20:33N 40°38' W 074°09'1 1.4
2014-Dec-13 19:31N 40°39' W 074°11'2 1.5
2014-Dec-13 18:30N 40°39' W 074°09'1 0.6
2014-Dec-13 17:30N 40°39' W 074°10'1 1.0
2014-Dec-13 16:31N 40°39' W 074°09'1 0.5
2014-Dec-13 15:05N 40°38' W 074°09'0 0.0
2014-Dec-13 14:33N 40°38' W 074°09'0 0.0
2014-Dec-13 13:33N 40°38' W 074°09'0 0.0
2014-Dec-13 12:33N 40°38' W 074°09'2 1.8
2014-Dec-13 11:31N 40°38' W 074°12'0 0.0
2014-Dec-13 10:32N 40°38' W 074°12'0 0.0
2014-Dec-13 09:33N 40°38' W 074°12'0 0.0
2014-Dec-13 08:33N 40°38' W 074°12'0 0.0
2014-Dec-13 07:33N 40°38' W 074°12'0 0.0
2014-Dec-13 06:33N 40°38' W 074°12'0 0.0
2014-Dec-13 05:33N 40°38' W 074°12'0 0.0
2014-Dec-13 04:33N 40°38' W 074°12'0 0.0
2014-Dec-13 03:33N 40°38' W 074°12'0 0.0
2014-Dec-13 02:33N 40°38' W 074°12'0 0.0
2014-Dec-13 01:33N 40°38' W 074°12'0 0.0
2014-Dec-13 00:33N 40°38' W 074°12'0 0.0
2014-Dec-12 23:32N 40°38' W 074°12'0 0.0
2014-Dec-12 22:33N 40°38' W 074°12'0 0.0
2014-Dec-12 21:33N 40°38' W 074°12'0 0.0
2014-Dec-12 20:27N 40°38' W 074°12'0 0.0
2014-Dec-12 19:28N 40°38' W 074°12'0 0.0
2014-Dec-12 18:31N 40°38' W 074°12'0 0.0
2014-Dec-12 17:33N 40°38' W 074°12'0 0.0
2014-Dec-12 16:32N 40°38' W 074°12'0 0.0
2014-Dec-12 15:32N 40°38' W 074°12'0 0.0
2014-Dec-12 14:33N 40°38' W 074°12'0 0.0
2014-Dec-12 13:32N 40°38' W 074°12'0 0.0
2014-Dec-12 12:32N 40°38' W 074°12'0 0.0
2014-Dec-12 11:29N 40°38' W 074°12'0 0.0
2014-Dec-12 09:32N 40°38' W 074°12'0 0.0
2014-Dec-12 08:31N 40°38' W 074°12'0 0.0
2014-Dec-12 07:33N 40°38' W 074°12'0 0.0
2014-Dec-12 06:33N 40°38' W 074°12'0 0.0
2014-Dec-12 05:32N 40°38' W 074°12'0 0.0
2014-Dec-12 04:29N 40°38' W 074°12'0 0.0
2014-Dec-12 03:33N 40°38' W 074°12'0 0.0
2014-Dec-12 02:33N 40°38' W 074°12'0 0.0
2014-Dec-12 01:33N 40°38' W 074°12'0 0.0
2014-Dec-12 00:33N 40°38' W 074°12'0 0.0
2014-Dec-11 23:32N 40°38' W 074°12'0 0.0
2014-Dec-11 22:05N 40°38' W 074°12'0 0.0
2014-Dec-11 20:27N 40°38' W 074°12'0 0.0
2014-Dec-11 19:33N 40°38' W 074°12'1 0.5
2014-Dec-11 18:33N 40°39' W 074°11'2 1.7
2014-Dec-11 17:32N 40°39' W 074°09'1 1.1
2014-Dec-11 16:33N 40°39' W 074°10'0 0.4
2014-Dec-11 15:33N 40°39' W 074°10'2 0.8
2014-Dec-11 13:31N 40°38' W 074°12'1 0.7
2014-Dec-11 12:33N 40°39' W 074°11'0 0.0
2014-Dec-11 11:33N 40°39' W 074°11'0 0.0
2014-Dec-11 10:33N 40°39' W 074°11'1 0.1
2014-Dec-11 00:12N 40°38' W 074°09'0 0.0
2014-Dec-10 23:09N 40°38' W 074°09'0 0.3
2014-Dec-10 22:33N 40°38' W 074°10'1 1.0
2014-Dec-10 21:33N 40°39' W 074°11'1 1.5
2014-Dec-10 20:33N 40°39' W 074°09'3 2.8
2014-Dec-10 19:33N 40°38' W 074°12'1 0.6
2014-Dec-10 18:32N 40°38' W 074°12'0 0.0
2014-Dec-10 17:27N 40°38' W 074°12'0 0.0
2014-Dec-10 16:33N 40°38' W 074°12'0 0.0
2014-Dec-10 14:16N 40°38' W 074°12'0 0.0
2014-Dec-10 12:31N 40°38' W 074°12'0 0.0
2014-Dec-10 10:31N 40°38' W 074°12'0 0.2
2014-Dec-10 09:34N 40°38' W 074°12'0 0.0
2014-Dec-10 08:33N 40°38' W 074°12'0 0.0
2014-Dec-10 07:33N 40°38' W 074°12'0 0.1
2014-Dec-10 06:33N 40°38' W 074°12'0 0.0
2014-Dec-10 05:33N 40°38' W 074°12'0 0.0
2014-Dec-10 04:33N 40°38' W 074°12'0 0.0
2014-Dec-10 03:33N 40°38' W 074°12'0 0.0
2014-Dec-10 02:32N 40°38' W 074°12'0 0.0
2014-Dec-10 01:33N 40°38' W 074°12'0 0.0
2014-Dec-10 00:33N 40°38' W 074°12'0 0.0
2014-Dec-09 23:33N 40°38' W 074°12'0 0.0
2014-Dec-09 22:33N 40°38' W 074°12'1 0.7
2014-Dec-09 21:33N 40°39' W 074°11'0 0.0
2014-Dec-09 20:33N 40°39' W 074°11'2 1.6
2014-Dec-09 19:32N 40°39' W 074°09'2 2.3
2014-Dec-09 18:33N 40°38' W 074°12'0 0.0
2014-Dec-09 17:33N 40°38' W 074°12'0 0.0
2014-Dec-09 16:33N 40°38' W 074°12'0 0.0
2014-Dec-09 15:32N 40°38' W 074°12'0 0.0
2014-Dec-09 14:33N 40°38' W 074°12'0 0.0
2014-Dec-09 13:24N 40°38' W 074°12'1 1.0
2014-Dec-09 12:34N 40°39' W 074°11'1 0.6
2014-Dec-09 10:23N 40°38' W 074°09'0 0.0
2014-Dec-09 09:11N 40°38' W 074°09'0 0.0
2014-Dec-09 08:33N 40°38' W 074°09'0 0.0
2014-Dec-09 07:33N 40°38' W 074°09'0 0.0
2014-Dec-09 06:18N 40°38' W 074°09'0 0.0
2014-Dec-09 05:22N 40°38' W 074°09'0 0.0
2014-Dec-09 03:04N 40°38' W 074°09'0 0.0
2014-Dec-09 02:33N 40°38' W 074°09'0 0.0
2014-Dec-08 22:32N 40°38' W 074°09'0 0.1
2014-Dec-08 20:33N 40°38' W 074°10'0 0.0
2014-Dec-08 19:33N 40°38' W 074°10'  
Track history (hours):
 
Tides and Currents Weather Stations Pressure Air Temp Water Temp Dewpoint Dewpoint Depression Visibility Wind Speed Wind Dir Waves Ship Positions

Jay Michael

Owner: Sterling Equipment Inc., Quincy, MA. More information available from US FCC via Universal Licensing System and Coast Guard Vessel Documentation Center.

Last reported at 2014-Dec-18 19:32 UTC. Time now 2014-Dec-18 19:36 UTC.
Position N 40°38' W 074°12'.

Length 21 m.

Type: Tug. MMSI: 367110280.

Date/timePositionNaut miles runAvg speedWind from/ knotsBaromVisibWave heightAir tempDewpointWater temp
2014-Dec-18 19:32N 40°38' W 074°12'0 0.0
2014-Dec-18 18:33N 40°38' W 074°12'2 1.9
2014-Dec-18 17:33N 40°38' W 074°09'2 1.6
2014-Dec-18 16:33N 40°39' W 074°11'0 0.4
2014-Dec-18 15:34N 40°38' W 074°12'0 0.0
2014-Dec-18 14:33N 40°38' W 074°12'2 1.6
2014-Dec-18 13:31N 40°38' W 074°10'2 1.8
2014-Dec-18 12:26N 40°39' W 074°07'2 2.7
2014-Dec-18 11:33N 40°39' W 074°10'1 1.3
2014-Dec-18 10:31N 40°38' W 074°12'0 0.0
2014-Dec-18 09:33N 40°38' W 074°12'0 0.0
2014-Dec-18 08:33N 40°38' W 074°12'0 0.0
2014-Dec-18 07:33N 40°38' W 074°12'0 0.0
2014-Dec-18 06:32N 40°38' W 074°12'0 0.0
2014-Dec-18 05:23N 40°38' W 074°12'0 0.0
2014-Dec-18 02:19N 40°38' W 074°12'0 0.0
2014-Dec-18 00:22N 40°38' W 074°12'0 0.0
2014-Dec-17 23:33N 40°38' W 074°12'0 0.0
2014-Dec-17 22:33N 40°38' W 074°12'0 0.0
2014-Dec-17 21:33N 40°38' W 074°12'1 1.0
2014-Dec-17 20:34N 40°39' W 074°11'1 1.4
2014-Dec-17 19:33N 40°39' W 074°09'4 3.9
2014-Dec-17 18:33N 40°39' W 074°04'4 4.2
2014-Dec-17 17:33N 40°35' W 074°02'3 2.7
2014-Dec-17 16:28N 40°32' W 074°00'7 3.6
2014-Dec-17 14:32N 40°27' W 073°54'14 1.9
2014-Dec-17 07:11N 40°14' W 073°47'8 4.3
2014-Dec-17 05:22N 40°21' W 073°51'4 4.2
2014-Dec-17 04:25N 40°24' W 073°53'6 4.4
2014-Dec-17 03:04N 40°30' W 073°57'3 5.0
2014-Dec-17 02:31N 40°31' W 073°60'5 5.5
2014-Dec-17 01:33N 40°36' W 074°02'3 3.2
2014-Dec-17 00:34N 40°39' W 074°04'4 4.3
2014-Dec-16 23:32N 40°39' W 074°10'1 0.8
2014-Dec-16 22:33N 40°39' W 074°11'1 1.3
2014-Dec-16 21:33N 40°39' W 074°10'2 1.8
2014-Dec-16 20:33N 40°38' W 074°12'0 0.0
2014-Dec-16 19:34N 40°38' W 074°12'1 0.6
2014-Dec-16 18:33N 40°39' W 074°11'0 0.0
2014-Dec-16 17:32N 40°39' W 074°11'0 0.0
2014-Dec-16 16:34N 40°39' W 074°11'0 0.0
2014-Dec-16 15:33N 40°39' W 074°11'0 0.0
2014-Dec-16 14:33N 40°39' W 074°11'0 0.0
2014-Dec-16 13:33N 40°39' W 074°11'0 0.0
2014-Dec-16 12:33N 40°39' W 074°11'0 0.0
2014-Dec-16 11:33N 40°39' W 074°11'0 0.0
2014-Dec-16 10:30N 40°39' W 074°11'0 0.0
2014-Dec-16 09:34N 40°39' W 074°11'0 0.0
2014-Dec-16 08:34N 40°39' W 074°11'0 0.0
2014-Dec-16 07:33N 40°39' W 074°11'0 0.0
2014-Dec-16 06:32N 40°39' W 074°11'0 0.0
2014-Dec-16 05:33N 40°39' W 074°11'0 0.0
2014-Dec-16 04:31N 40°39' W 074°11'0 0.0
2014-Dec-16 03:32N 40°39' W 074°11'2 2.1
2014-Dec-16 02:33N 40°39' W 074°09'2 1.8
2014-Dec-16 01:27N 40°39' W 074°11'1 1.6
2014-Dec-16 00:31N 40°38' W 074°09'0 0.2
2014-Dec-15 23:34N 40°39' W 074°09'0 0.0
2014-Dec-15 22:33N 40°39' W 074°09'0 0.0
2014-Dec-15 21:33N 40°39' W 074°09'2 1.8
2014-Dec-15 20:28N 40°38' W 074°12'0 0.1
2014-Dec-15 19:33N 40°38' W 074°12'0 0.2
2014-Dec-15 18:31N 40°38' W 074°12'0 0.3
2014-Dec-15 17:32N 40°38' W 074°11'0 0.4
2014-Dec-15 16:33N 40°38' W 074°12'0 0.0
2014-Dec-15 15:33N 40°38' W 074°12'0 0.0
2014-Dec-15 14:32N 40°38' W 074°12'0 0.0
2014-Dec-15 13:17N 40°38' W 074°12'1 1.9
2014-Dec-15 12:33N 40°39' W 074°10'1 1.1
2014-Dec-15 11:29N 40°38' W 074°12'0 0.3
2014-Dec-15 10:33N 40°38' W 074°12'0 0.0
2014-Dec-15 09:33N 40°38' W 074°12'0 0.0
2014-Dec-15 08:33N 40°38' W 074°12'0 0.0
2014-Dec-15 07:33N 40°38' W 074°12'0 0.0
2014-Dec-15 06:33N 40°38' W 074°12'0 0.0
2014-Dec-15 05:33N 40°38' W 074°12'0 0.0
2014-Dec-15 04:33N 40°38' W 074°12'0 0.0
2014-Dec-15 03:33N 40°38' W 074°12'0 0.0
2014-Dec-15 02:33N 40°38' W 074°12'0 0.0
2014-Dec-15 01:33N 40°38' W 074°12'0 0.0
2014-Dec-15 00:33N 40°38' W 074°12'0 0.0
2014-Dec-14 23:33N 40°38' W 074°12'0 0.1
2014-Dec-14 22:33N 40°38' W 074°12'0 0.0
2014-Dec-14 21:33N 40°38' W 074°12'0 0.0
2014-Dec-14 20:33N 40°38' W 074°12'0 0.1
2014-Dec-14 19:33N 40°38' W 074°12'0 0.0
2014-Dec-14 18:33N 40°38' W 074°12'1 0.6
2014-Dec-14 17:31N 40°38' W 074°12'1 0.9
2014-Dec-14 16:33N 40°38' W 074°12'0 0.2
2014-Dec-14 15:33N 40°39' W 074°11'0 0.5
2014-Dec-14 14:33N 40°38' W 074°12'1 0.5
2014-Dec-14 13:33N 40°38' W 074°11'0 0.5
2014-Dec-14 12:33N 40°38' W 074°12'0 0.0
2014-Dec-14 11:30N 40°38' W 074°12'0 0.0
2014-Dec-14 10:32N 40°38' W 074°12'0 0.0
2014-Dec-14 09:33N 40°38' W 074°12'0 0.0
2014-Dec-14 08:31N 40°38' W 074°12'0 0.0
2014-Dec-14 07:33N 40°38' W 074°12'0 0.0
2014-Dec-14 06:33N 40°38' W 074°12'0 0.0
2014-Dec-14 05:33N 40°38' W 074°12'1 1.0
2014-Dec-14 04:32N 40°39' W 074°11'7 6.7
2014-Dec-14 03:33N 40°36' W 074°03'1 1.4
2014-Dec-14 02:33N 40°38' W 074°03'6 5.7
2014-Dec-14 01:33N 40°39' W 074°10'1 1.3
2014-Dec-14 00:33N 40°38' W 074°12'0 0.0
2014-Dec-13 23:23N 40°38' W 074°12'0 0.0
2014-Dec-13 22:28N 40°38' W 074°12'2 2.7
2014-Dec-13 21:33N 40°39' W 074°09'1 0.5
2014-Dec-13 20:33N 40°38' W 074°09'1 1.4
2014-Dec-13 19:31N 40°39' W 074°11'2 1.5
2014-Dec-13 18:30N 40°39' W 074°09'1 0.6
2014-Dec-13 17:30N 40°39' W 074°10'1 1.0
2014-Dec-13 16:31N 40°39' W 074°09'1 0.5
2014-Dec-13 15:05N 40°38' W 074°09'0 0.0
2014-Dec-13 14:33N 40°38' W 074°09'0 0.0
2014-Dec-13 13:33N 40°38' W 074°09'0 0.0
2014-Dec-13 12:33N 40°38' W 074°09'2 1.8
2014-Dec-13 11:31N 40°38' W 074°12'0 0.0
2014-Dec-13 10:32N 40°38' W 074°12'0 0.0
2014-Dec-13 09:33N 40°38' W 074°12'0 0.0
2014-Dec-13 08:33N 40°38' W 074°12'0 0.0
2014-Dec-13 07:33N 40°38' W 074°12'0 0.0
2014-Dec-13 06:33N 40°38' W 074°12'0 0.0
2014-Dec-13 05:33N 40°38' W 074°12'0 0.0
2014-Dec-13 04:33N 40°38' W 074°12'0 0.0
2014-Dec-13 03:33N 40°38' W 074°12'0 0.0
2014-Dec-13 02:33N 40°38' W 074°12'0 0.0
2014-Dec-13 01:33N 40°38' W 074°12'0 0.0
2014-Dec-13 00:33N 40°38' W 074°12'0 0.0
2014-Dec-12 23:32N 40°38' W 074°12'0 0.0
2014-Dec-12 22:33N 40°38' W 074°12'0 0.0
2014-Dec-12 21:33N 40°38' W 074°12'0 0.0
2014-Dec-12 20:27N 40°38' W 074°12'0 0.0
2014-Dec-12 19:28N 40°38' W 074°12'0 0.0
2014-Dec-12 18:31N 40°38' W 074°12'0 0.0
2014-Dec-12 17:33N 40°38' W 074°12'0 0.0
2014-Dec-12 16:32N 40°38' W 074°12'0 0.0
2014-Dec-12 15:32N 40°38' W 074°12'0 0.0
2014-Dec-12 14:33N 40°38' W 074°12'0 0.0
2014-Dec-12 13:32N 40°38' W 074°12'0 0.0
2014-Dec-12 12:32N 40°38' W 074°12'0 0.0
2014-Dec-12 11:29N 40°38' W 074°12'0 0.0
2014-Dec-12 09:32N 40°38' W 074°12'0 0.0
2014-Dec-12 08:31N 40°38' W 074°12'0 0.0
2014-Dec-12 07:33N 40°38' W 074°12'0 0.0
2014-Dec-12 06:33N 40°38' W 074°12'0 0.0
2014-Dec-12 05:32N 40°38' W 074°12'0 0.0
2014-Dec-12 04:29N 40°38' W 074°12'0 0.0
2014-Dec-12 03:33N 40°38' W 074°12'0 0.0
2014-Dec-12 02:33N 40°38' W 074°12'0 0.0
2014-Dec-12 01:33N 40°38' W 074°12'0 0.0
2014-Dec-12 00:33N 40°38' W 074°12'0 0.0
2014-Dec-11 23:32N 40°38' W 074°12'0 0.0
2014-Dec-11 22:05N 40°38' W 074°12'0 0.0
2014-Dec-11 20:27N 40°38' W 074°12'0 0.0
2014-Dec-11 19:33N 40°38' W 074°12'1 0.5
2014-Dec-11 18:33N 40°39' W 074°11'2 1.7
2014-Dec-11 17:32N 40°39' W 074°09'1 1.1
2014-Dec-11 16:33N 40°39' W 074°10'0 0.4
2014-Dec-11 15:33N 40°39' W 074°10'2 0.8
2014-Dec-11 13:31N 40°38' W 074°12'1 0.7
2014-Dec-11 12:33N 40°39' W 074°11'0 0.0
2014-Dec-11 11:33N 40°39' W 074°11'0 0.0
2014-Dec-11 10:33N 40°39' W 074°11'1 0.1
2014-Dec-11 00:12N 40°38' W 074°09'0 0.0
2014-Dec-10 23:09N 40°38' W 074°09'0 0.3
2014-Dec-10 22:33N 40°38' W 074°10'1 1.0
2014-Dec-10 21:33N 40°39' W 074°11'1 1.5
2014-Dec-10 20:33N 40°39' W 074°09'3 2.8
2014-Dec-10 19:33N 40°38' W 074°12'1 0.6
2014-Dec-10 18:32N 40°38' W 074°12'0 0.0
2014-Dec-10 17:27N 40°38' W 074°12'0 0.0
2014-Dec-10 16:33N 40°38' W 074°12'0 0.0
2014-Dec-10 14:16N 40°38' W 074°12'0 0.0
2014-Dec-10 12:31N 40°38' W 074°12'0 0.0
2014-Dec-10 10:31N 40°38' W 074°12'0 0.2
2014-Dec-10 09:34N 40°38' W 074°12'0 0.0
2014-Dec-10 08:33N 40°38' W 074°12'0 0.0
2014-Dec-10 07:33N 40°38' W 074°12'0 0.1
2014-Dec-10 06:33N 40°38' W 074°12'0 0.0
2014-Dec-10 05:33N 40°38' W 074°12'0 0.0
2014-Dec-10 04:33N 40°38' W 074°12'0 0.0
2014-Dec-10 03:33N 40°38' W 074°12'0 0.0
2014-Dec-10 02:32N 40°38' W 074°12'0 0.0
2014-Dec-10 01:33N 40°38' W 074°12'0 0.0
2014-Dec-10 00:33N 40°38' W 074°12'0 0.0
2014-Dec-09 23:33N 40°38' W 074°12'0 0.0
2014-Dec-09 22:33N 40°38' W 074°12'1 0.7
2014-Dec-09 21:33N 40°39' W 074°11'0 0.0
2014-Dec-09 20:33N 40°39' W 074°11'2 1.6
2014-Dec-09 19:32N 40°39' W 074°09'2 2.3
2014-Dec-09 18:33N 40°38' W 074°12'0 0.0
2014-Dec-09 17:33N 40°38' W 074°12'0 0.0
2014-Dec-09 16:33N 40°38' W 074°12'0 0.0
2014-Dec-09 15:32N 40°38' W 074°12'0 0.0
2014-Dec-09 14:33N 40°38' W 074°12'0 0.0
2014-Dec-09 13:24N 40°38' W 074°12'1 1.0
2014-Dec-09 12:34N 40°39' W 074°11'1 0.6
2014-Dec-09 10:23N 40°38' W 074°09'0 0.0
2014-Dec-09 09:11N 40°38' W 074°09'0 0.0
2014-Dec-09 08:33N 40°38' W 074°09'0 0.0
2014-Dec-09 07:33N 40°38' W 074°09'0 0.0
2014-Dec-09 06:18N 40°38' W 074°09'0 0.0
2014-Dec-09 05:22N 40°38' W 074°09'0 0.0
2014-Dec-09 03:04N 40°38' W 074°09'0 0.0
2014-Dec-09 02:33N 40°38' W 074°09'0 0.0
2014-Dec-08 22:32N 40°38' W 074°09'0 0.1
2014-Dec-08 20:33N 40°38' W 074°10'0 0.0
2014-Dec-08 19:33N 40°38' W 074°10'  

Dump ship's entire track history